createdAt,value
2018-08-07T00:02:09.932Z,3.00
2018-08-07T00:04:37.072Z,3.77
2018-08-07T00:07:04.247Z,3.33
2018-08-07T00:09:31.424Z,3.60
2018-08-07T00:11:58.625Z,3.10
2018-08-07T00:14:25.792Z,3.52
2018-08-07T00:16:52.956Z,3.10
2018-08-07T00:19:20.139Z,3.55
2018-08-07T00:21:47.297Z,3.00
2018-08-07T00:24:14.462Z,3.35
2018-08-07T00:26:41.627Z,3.37
2018-08-07T00:29:08.778Z,2.60
2018-08-07T00:31:35.944Z,3.37
2018-08-07T00:34:03.125Z,2.77
2018-08-07T00:36:30.288Z,3.22
2018-08-07T00:38:57.485Z,3.12
2018-08-07T00:41:24.649Z,2.90
2018-08-07T00:43:51.832Z,3.35
2018-08-07T00:46:19.008Z,3.77
2018-08-07T00:48:46.197Z,2.75
2018-08-07T00:51:13.397Z,4.35
2018-08-07T00:53:40.560Z,3.55
2018-08-07T00:56:07.729Z,4.17
2018-08-07T00:58:34.949Z,3.42
2018-08-07T01:01:02.114Z,3.02
2018-08-07T01:03:29.272Z,3.37
2018-08-07T01:05:56.452Z,2.70
2018-08-07T01:08:23.641Z,2.85
2018-08-07T01:10:50.821Z,3.30
2018-08-07T01:13:17.984Z,3.42
2018-08-07T01:15:45.157Z,3.70
2018-08-07T01:18:12.325Z,3.22
2018-08-07T01:20:39.493Z,3.10
2018-08-07T01:23:06.667Z,3.27
2018-08-07T01:25:33.845Z,2.70
2018-08-07T01:28:01.017Z,3.20
2018-08-07T01:30:29.580Z,3.50
2018-08-07T01:32:56.986Z,3.70
2018-08-07T01:35:24.474Z,3.37
2018-08-07T01:37:51.673Z,4.08
2018-08-07T01:40:18.925Z,3.92
2018-08-07T01:42:46.178Z,3.67
2018-08-07T01:45:13.357Z,3.75
2018-08-07T01:47:40.869Z,3.70
2018-08-07T01:50:09.676Z,3.72
2018-08-07T01:52:37.100Z,4.65
2018-08-07T01:55:05.013Z,3.90
2018-08-07T01:57:32.175Z,4.40
2018-08-07T01:59:59.348Z,4.30
2018-08-07T02:02:26.508Z,3.90
2018-08-07T02:04:53.681Z,3.80
2018-08-07T02:07:20.852Z,4.10
2018-08-07T02:09:48.029Z,4.00
2018-08-07T02:12:15.197Z,3.90
2018-08-07T02:14:42.369Z,3.72
2018-08-07T02:17:09.528Z,4.10
2018-08-07T02:19:36.700Z,3.90
2018-08-07T02:22:04.207Z,3.90
2018-08-07T02:24:31.377Z,4.08
2018-08-07T02:26:58.528Z,3.58
2018-08-07T02:29:25.718Z,3.90
2018-08-07T02:31:52.877Z,4.10
2018-08-07T02:34:20.037Z,4.17
2018-08-07T02:36:47.202Z,4.30
2018-08-07T02:39:14.365Z,3.92
2018-08-07T02:41:41.546Z,3.95
2018-08-07T02:44:08.710Z,3.60
2018-08-07T02:46:36.060Z,3.72
2018-08-07T02:49:03.215Z,3.75
2018-08-07T02:51:30.372Z,4.30
2018-08-07T02:53:57.660Z,3.62
2018-08-07T02:56:24.804Z,4.30
2018-08-07T02:58:51.968Z,4.25
2018-08-07T03:01:19.140Z,3.95
2018-08-07T03:03:46.317Z,4.85
2018-08-07T03:06:13.496Z,3.95
2018-08-07T03:08:40.660Z,3.90
2018-08-07T03:11:07.824Z,4.58
2018-08-07T03:13:34.989Z,4.65
2018-08-07T03:16:02.156Z,4.65
2018-08-07T03:18:29.311Z,4.65
2018-08-07T03:20:56.477Z,4.30
2018-08-07T03:23:23.649Z,4.10
2018-08-07T03:25:50.810Z,4.40
2018-08-07T03:28:18.019Z,4.10
2018-08-07T03:30:45.262Z,4.28
2018-08-07T03:33:12.424Z,4.45
2018-08-07T03:35:39.581Z,4.05
2018-08-07T03:38:06.744Z,4.58
2018-08-07T03:40:33.916Z,4.30
2018-08-07T03:43:01.082Z,3.83
2018-08-07T03:45:28.246Z,3.95
2018-08-07T03:47:55.428Z,3.70
2018-08-07T03:50:22.580Z,3.37
2018-08-07T03:52:49.728Z,3.70
2018-08-07T03:55:19.124Z,3.67
2018-08-07T03:57:46.615Z,3.50
2018-08-07T04:00:15.092Z,2.85
2018-08-07T04:02:42.272Z,3.37
2018-08-07T04:05:09.451Z,3.80
2018-08-07T04:07:37.123Z,3.30
2018-08-07T04:10:04.915Z,3.45
2018-08-07T04:12:32.083Z,3.90
2018-08-07T04:14:59.228Z,3.92
2018-08-07T04:17:26.415Z,3.17
2018-08-07T04:19:53.575Z,4.58
2018-08-07T04:22:20.733Z,4.33
2018-08-07T04:24:47.887Z,3.77
2018-08-07T04:27:15.142Z,4.67
2018-08-07T04:29:42.300Z,4.65
2018-08-07T04:32:09.476Z,4.00
2018-08-07T04:34:36.664Z,4.30
2018-08-07T04:37:03.816Z,3.85
2018-08-07T04:39:30.980Z,6.12
2018-08-07T04:41:58.137Z,4.75
2018-08-07T04:44:25.308Z,3.77
2018-08-07T04:46:52.470Z,4.20
2018-08-07T04:49:19.652Z,5.45
2018-08-07T04:51:46.842Z,5.37
2018-08-07T04:54:14.006Z,6.03
2018-08-07T04:56:41.180Z,6.10
2018-08-07T04:59:08.340Z,6.67
2018-08-07T05:01:35.516Z,5.15
2018-08-07T05:04:02.675Z,5.12
2018-08-07T05:06:29.844Z,4.62
2018-08-07T05:08:57.012Z,4.90
2018-08-07T05:11:24.217Z,5.12
2018-08-07T05:13:51.425Z,4.90
2018-08-07T05:16:18.588Z,4.30
2018-08-07T05:18:45.764Z,6.12
2018-08-07T05:21:12.925Z,6.12
2018-08-07T05:23:40.095Z,6.20
2018-08-07T05:26:07.568Z,5.75
2018-08-07T05:28:34.780Z,5.00
2018-08-07T05:31:01.925Z,4.65
2018-08-07T05:33:29.079Z,5.40
2018-08-07T05:35:56.294Z,4.92
2018-08-07T05:38:23.438Z,4.35
2018-08-07T05:40:50.623Z,5.70
2018-08-07T05:43:17.803Z,5.00
2018-08-07T05:45:44.994Z,5.17
2018-08-07T05:48:12.173Z,4.67
2018-08-07T05:50:39.503Z,5.10
2018-08-07T05:53:06.530Z,4.72
2018-08-07T05:55:33.692Z,4.75
2018-08-07T05:58:00.892Z,4.47
2018-08-07T06:00:28.040Z,4.35
2018-08-07T06:02:55.216Z,5.05
2018-08-07T06:05:22.458Z,4.60
2018-08-07T06:07:49.816Z,4.40
2018-08-07T06:10:17.206Z,4.45
2018-08-07T06:12:44.368Z,4.40
2018-08-07T06:15:13.237Z,5.05
2018-08-07T06:17:40.978Z,5.35
2018-08-07T06:20:08.760Z,5.92
2018-08-07T06:22:36.193Z,5.83
2018-08-07T06:25:03.587Z,5.42
2018-08-07T06:27:30.953Z,5.25
2018-08-07T06:29:58.114Z,5.40
2018-08-07T06:32:25.444Z,5.05
2018-08-07T06:34:52.616Z,5.75
2018-08-07T06:37:19.807Z,7.03
2018-08-07T06:39:46.987Z,5.50
2018-08-07T06:42:14.213Z,6.12
2018-08-07T06:44:41.397Z,5.25
2018-08-07T06:47:08.561Z,6.70
2018-08-07T06:49:35.741Z,5.72
2018-08-07T06:52:03.065Z,6.35
2018-08-07T06:54:30.240Z,5.47
2018-08-07T06:56:57.430Z,4.42
2018-08-07T06:59:24.666Z,4.83
2018-08-07T07:01:51.816Z,4.73
2018-08-07T07:04:18.977Z,4.70
2018-08-07T07:06:46.191Z,5.92
2018-08-07T07:09:13.330Z,5.33
2018-08-07T07:11:40.480Z,4.50
2018-08-07T07:14:07.957Z,4.40
2018-08-07T07:16:35.533Z,4.70
2018-08-07T07:19:02.693Z,3.97
2018-08-07T07:21:29.864Z,4.70
2018-08-07T07:23:57.029Z,4.80
2018-08-07T07:26:24.207Z,3.87
2018-08-07T07:28:51.365Z,3.93
2018-08-07T07:31:18.530Z,4.97
2018-08-07T07:33:45.717Z,4.13
2018-08-07T07:36:12.880Z,5.00
2018-08-07T07:38:40.092Z,4.67
2018-08-07T07:41:07.340Z,4.60
2018-08-07T07:43:34.513Z,3.57
2018-08-07T07:46:01.689Z,4.80
2018-08-07T07:48:28.892Z,4.80
2018-08-07T07:50:56.079Z,4.70
2018-08-07T07:53:23.256Z,4.50
2018-08-07T07:55:50.441Z,4.20
2018-08-07T07:58:17.635Z,4.87
2018-08-07T08:00:44.863Z,4.67
2018-08-07T08:03:12.068Z,4.40
2018-08-07T08:05:39.271Z,5.77
2018-08-07T08:08:06.500Z,5.00
2018-08-07T08:10:33.684Z,5.00
2018-08-07T08:13:00.865Z,4.60
2018-08-07T08:15:28.051Z,5.20
2018-08-07T08:17:55.242Z,5.10
2018-08-07T08:20:23.726Z,5.50
2018-08-07T08:22:51.694Z,5.13
2018-08-07T08:25:18.874Z,4.80
2018-08-07T08:27:46.075Z,5.17
2018-08-07T08:30:15.309Z,4.60
2018-08-07T08:32:42.971Z,4.90
2018-08-07T08:35:11.873Z,4.50
2018-08-07T08:37:39.807Z,5.37
2018-08-07T08:40:08.114Z,5.30
2018-08-07T08:42:35.466Z,4.87
2018-08-07T08:45:02.634Z,5.80
2018-08-07T08:47:29.904Z,6.03
2018-08-07T08:49:57.078Z,5.60
2018-08-07T08:52:24.271Z,4.97
2018-08-07T08:54:51.421Z,5.10
2018-08-07T08:57:18.607Z,5.77
2018-08-07T08:59:45.802Z,6.23
2018-08-07T09:02:12.969Z,6.60
2018-08-07T09:04:40.131Z,5.70
2018-08-07T09:07:07.603Z,5.53
2018-08-07T09:09:34.803Z,5.60
2018-08-07T09:12:01.967Z,5.90
2018-08-07T09:14:29.145Z,5.60
2018-08-07T09:16:56.322Z,5.90
2018-08-07T09:19:23.520Z,6.20
2018-08-07T09:21:50.699Z,6.20
2018-08-07T09:24:17.902Z,7.03
2018-08-07T09:26:45.084Z,6.07
2018-08-07T09:29:12.255Z,6.00
2018-08-07T09:31:39.432Z,5.03
2018-08-07T09:34:06.676Z,5.73
2018-08-07T09:36:33.837Z,7.07
2018-08-07T09:39:01.030Z,5.90
2018-08-07T09:41:28.203Z,6.37
2018-08-07T09:43:55.368Z,6.30
2018-08-07T09:46:22.547Z,6.30
2018-08-07T09:48:49.752Z,5.50
2018-08-07T09:51:16.935Z,5.60
2018-08-07T09:53:44.112Z,5.80
2018-08-07T09:56:11.314Z,5.90
2018-08-07T09:58:38.554Z,6.47
2018-08-07T10:01:11.446Z,5.33
2018-08-07T10:03:38.622Z,5.40
2018-08-07T10:06:06.390Z,6.47
2018-08-07T10:08:33.580Z,5.67
2018-08-07T10:11:00.754Z,5.60
2018-08-07T10:13:27.956Z,5.10
2018-08-07T10:15:55.121Z,4.80
2018-08-07T10:18:22.303Z,6.80
2018-08-07T10:20:49.463Z,5.47
2018-08-07T10:23:16.664Z,5.33
2018-08-07T10:25:43.833Z,4.23
2018-08-07T10:28:11.019Z,5.00
2018-08-07T10:30:38.209Z,5.77
2018-08-07T10:33:05.597Z,4.80
2018-08-07T10:35:32.771Z,5.30
2018-08-07T10:37:59.959Z,5.30
2018-08-07T10:40:27.863Z,5.10
2018-08-07T10:42:55.054Z,4.93
2018-08-07T10:45:23.504Z,5.27
2018-08-07T10:47:50.960Z,5.13
2018-08-07T10:50:28.996Z,4.13
2018-08-07T10:52:56.660Z,4.20
2018-08-07T10:55:24.583Z,4.17
2018-08-07T10:57:52.435Z,4.70
2018-08-07T11:00:21.262Z,5.13
2018-08-07T11:02:49.510Z,6.00
2018-08-07T11:05:17.161Z,5.27
2018-08-07T11:07:44.327Z,4.90
2018-08-07T11:10:12.187Z,4.90
2018-08-07T11:12:39.540Z,4.60
2018-08-07T11:15:09.530Z,4.53
2018-08-07T11:17:36.719Z,4.63
2018-08-07T11:20:03.924Z,4.07
2018-08-07T11:22:31.103Z,4.40
2018-08-07T11:24:58.363Z,5.03
2018-08-07T11:27:25.529Z,4.37
2018-08-07T11:29:52.767Z,5.20
2018-08-07T11:32:19.935Z,4.60
2018-08-07T11:34:47.089Z,4.43
2018-08-07T11:37:14.280Z,4.00
2018-08-07T11:39:41.471Z,4.60
2018-08-07T11:42:08.641Z,4.47
2018-08-07T11:44:35.830Z,4.87
2018-08-07T11:47:02.997Z,4.30
2018-08-07T11:49:30.183Z,4.60
2018-08-07T11:51:57.353Z,5.20
2018-08-07T11:54:24.555Z,5.10
2018-08-07T11:56:51.722Z,4.60
2018-08-07T11:59:19.670Z,4.90
2018-08-07T12:01:47.324Z,4.33
2018-08-07T12:04:14.469Z,7.17
2018-08-07T12:06:41.924Z,3.97
2018-08-07T12:09:10.048Z,4.40
2018-08-07T12:11:37.389Z,4.67
2018-08-07T12:14:04.588Z,5.20
2018-08-07T12:16:31.791Z,4.23
2018-08-07T12:18:58.989Z,3.87
2018-08-07T12:21:26.191Z,3.63
2018-08-07T12:23:53.374Z,3.80
2018-08-07T12:26:20.617Z,3.77
2018-08-07T12:28:47.831Z,3.30
2018-08-07T12:31:15.035Z,4.70
2018-08-07T12:33:42.249Z,3.83
2018-08-07T12:36:09.445Z,3.47
2018-08-07T12:38:36.637Z,3.80
2018-08-07T12:41:03.881Z,3.17
2018-08-07T12:43:31.100Z,4.00
2018-08-07T12:45:58.307Z,3.80
2018-08-07T12:48:25.490Z,3.83
2018-08-07T12:50:52.711Z,3.80
2018-08-07T12:53:19.979Z,4.33
2018-08-07T12:55:47.168Z,4.20
2018-08-07T12:58:14.359Z,3.87
2018-08-07T13:00:41.571Z,3.77
2018-08-07T13:03:08.779Z,3.97
2018-08-07T13:05:35.966Z,4.27
2018-08-07T13:08:03.214Z,3.60
2018-08-07T13:10:30.427Z,2.90
2018-08-07T13:12:57.618Z,3.70
2018-08-07T13:15:24.807Z,3.63
2018-08-07T13:18:27.248Z,4.10
2018-08-07T13:20:54.434Z,4.80
2018-08-07T13:23:21.630Z,3.80
2018-08-07T13:25:48.825Z,3.30
2018-08-07T13:28:15.990Z,4.47
2018-08-07T13:30:43.176Z,4.10
2018-08-07T13:33:10.439Z,4.30
2018-08-07T13:35:37.619Z,3.60
2018-08-07T13:38:04.940Z,3.93
2018-08-07T13:40:32.131Z,4.80
2018-08-07T13:42:59.299Z,4.30
2018-08-07T13:45:26.511Z,4.40
2018-08-07T13:47:53.768Z,4.30
2018-08-07T13:50:22.879Z,4.20
2018-08-07T13:52:50.336Z,4.00
2018-08-07T13:55:18.338Z,3.57
2018-08-07T13:57:45.868Z,3.67
2018-08-07T14:00:15.490Z,3.70
2018-08-07T14:02:42.954Z,4.40
2018-08-07T14:05:10.157Z,4.20
2018-08-07T14:07:37.346Z,5.30
2018-08-07T14:10:04.692Z,5.20
2018-08-07T14:12:31.892Z,4.90
2018-08-07T14:14:59.073Z,4.50
2018-08-07T14:17:26.300Z,5.00
2018-08-07T14:19:53.565Z,4.30
2018-08-07T14:22:20.755Z,5.07
2018-08-07T14:24:47.989Z,4.50
2018-08-07T14:27:15.182Z,5.13
2018-08-07T14:29:42.400Z,4.90
2018-08-07T14:32:09.598Z,4.70
2018-08-07T14:34:36.808Z,4.20
2018-08-07T14:37:03.995Z,4.67
2018-08-07T14:39:31.198Z,5.00
2018-08-07T14:41:58.383Z,4.13
2018-08-07T14:44:25.575Z,4.57
2018-08-07T14:46:52.764Z,5.33
2018-08-07T14:49:19.930Z,4.83
2018-08-07T14:51:47.129Z,4.43
2018-08-07T14:54:14.320Z,4.30
2018-08-07T14:56:41.546Z,4.90
2018-08-07T14:59:08.726Z,4.40
2018-08-07T15:01:35.972Z,4.83
2018-08-07T15:04:03.168Z,4.63
2018-08-07T15:06:30.384Z,3.83
2018-08-07T15:08:57.569Z,3.93
2018-08-07T15:11:24.782Z,4.20
2018-08-07T15:13:51.950Z,3.80
2018-08-07T15:16:19.125Z,4.23
2018-08-07T15:18:46.311Z,3.60
2018-08-07T15:21:13.552Z,4.07
2018-08-07T15:23:40.727Z,4.20
2018-08-07T15:26:07.913Z,3.60
2018-08-07T15:28:35.090Z,5.63
2018-08-07T15:31:02.279Z,6.87
2018-08-07T15:33:29.470Z,6.33
2018-08-07T15:35:56.697Z,6.00
2018-08-07T15:38:23.887Z,6.70
2018-08-07T15:40:51.071Z,6.77
2018-08-07T15:43:18.381Z,6.27
2018-08-07T15:45:45.563Z,7.60
2018-08-07T15:48:12.747Z,6.67
2018-08-07T15:50:39.951Z,8.13
2018-08-07T15:53:07.127Z,6.80
2018-08-07T15:55:34.313Z,6.90
2018-08-07T15:58:01.499Z,6.50
2018-08-07T16:00:30.246Z,7.40
2018-08-07T16:03:00.354Z,7.30
2018-08-07T16:05:27.538Z,6.97
2018-08-07T16:07:54.694Z,6.63
2018-08-07T16:10:22.415Z,6.97
2018-08-07T16:12:50.478Z,6.53
2018-08-07T16:15:17.629Z,6.57
2018-08-07T16:17:45.995Z,6.03
2018-08-07T16:20:13.176Z,6.80
2018-08-07T16:22:40.892Z,7.17
2018-08-07T16:25:09.899Z,6.10
2018-08-07T16:27:37.081Z,7.70
2018-08-07T16:30:05.756Z,7.47
2018-08-07T16:32:32.857Z,7.77
2018-08-07T16:35:00.040Z,7.67
2018-08-07T16:37:27.204Z,7.40
2018-08-07T16:39:54.379Z,7.70
2018-08-07T16:42:21.594Z,8.37
2018-08-07T16:44:48.812Z,8.20
2018-08-07T16:47:16.015Z,6.87
2018-08-07T16:49:43.258Z,7.40
2018-08-07T16:52:10.553Z,8.13
2018-08-07T16:54:37.720Z,6.83
2018-08-07T16:57:04.940Z,6.80
2018-08-07T16:59:32.119Z,7.90
2018-08-07T17:01:59.299Z,7.00
2018-08-07T17:04:26.470Z,6.77
2018-08-07T17:06:53.640Z,7.47
2018-08-07T17:09:20.826Z,6.80
2018-08-07T17:11:48.011Z,6.53
2018-08-07T17:14:15.221Z,6.87
2018-08-07T17:16:42.408Z,6.80
2018-08-07T17:19:09.598Z,6.70
2018-08-07T17:21:36.796Z,6.00
2018-08-07T17:24:03.974Z,6.40
2018-08-07T17:26:31.164Z,6.43
2018-08-07T17:28:58.365Z,5.40
2018-08-07T17:31:25.539Z,5.23
2018-08-07T17:33:52.815Z,5.80
2018-08-07T17:36:20.004Z,5.30
2018-08-07T17:38:47.297Z,5.10
2018-08-07T17:41:14.491Z,4.70
2018-08-07T17:43:41.686Z,4.67
2018-08-07T17:46:08.907Z,4.40
2018-08-07T17:48:36.120Z,5.20
2018-08-07T17:51:03.379Z,3.90
2018-08-07T17:53:30.543Z,4.77
2018-08-07T17:55:57.750Z,5.50
2018-08-07T17:58:24.918Z,5.30
2018-08-07T18:00:52.120Z,5.13
2018-08-07T18:03:19.295Z,5.90
2018-08-07T18:05:46.469Z,5.07
2018-08-07T18:08:13.677Z,5.60
2018-08-07T18:10:40.876Z,6.70
2018-08-07T18:13:08.037Z,5.10
2018-08-07T18:15:35.219Z,4.50
2018-08-07T18:18:02.395Z,4.77
2018-08-07T18:20:29.554Z,5.57
2018-08-07T18:22:56.755Z,5.27
2018-08-07T18:25:24.024Z,5.40
2018-08-07T18:27:51.196Z,5.20
2018-08-07T18:30:19.857Z,5.90
2018-08-07T18:32:47.086Z,5.27
2018-08-07T18:35:15.187Z,5.00
2018-08-07T18:37:42.372Z,5.37
2018-08-07T18:40:09.552Z,7.57
2018-08-07T18:42:36.918Z,5.40
2018-08-07T18:45:04.930Z,4.80
2018-08-07T18:47:32.117Z,5.47
2018-08-07T18:49:59.303Z,4.93
2018-08-07T18:52:26.477Z,5.40
2018-08-07T18:54:53.992Z,6.20
2018-08-07T18:57:21.236Z,5.87
2018-08-07T18:59:48.387Z,6.97
2018-08-07T19:02:15.684Z,8.03
2018-08-07T19:04:42.948Z,8.67
2018-08-07T19:07:10.135Z,10.20
2018-08-07T19:09:37.370Z,8.00
2018-08-07T19:12:04.536Z,7.40
2018-08-07T19:14:31.714Z,7.10
2018-08-07T19:16:58.900Z,8.10
2018-08-07T19:19:26.096Z,6.80
2018-08-07T19:21:53.299Z,5.37
2018-08-07T19:24:20.564Z,5.70
2018-08-07T19:26:47.707Z,7.60
2018-08-07T19:29:14.891Z,7.10
2018-08-07T19:31:42.081Z,5.90
2018-08-07T19:34:09.245Z,6.60
2018-08-07T19:36:36.422Z,6.00
2018-08-07T19:39:05.780Z,6.70
2018-08-07T19:41:32.966Z,7.30
2018-08-07T19:44:00.122Z,7.37
2018-08-07T19:46:27.296Z,8.77
2018-08-07T19:48:54.482Z,9.80
2018-08-07T19:51:21.702Z,9.63
2018-08-07T19:53:48.874Z,9.37
2018-08-07T19:56:16.044Z,9.80
2018-08-07T19:58:43.244Z,11.10
2018-08-07T20:01:10.438Z,11.03
2018-08-07T20:03:37.610Z,11.00
2018-08-07T20:06:04.801Z,10.53
2018-08-07T20:08:32.053Z,12.20
2018-08-07T20:10:59.254Z,11.43
2018-08-07T20:13:26.489Z,11.97
2018-08-07T20:15:53.680Z,10.50
2018-08-07T20:18:20.898Z,11.90
2018-08-07T20:20:48.066Z,12.20
2018-08-07T20:23:15.242Z,9.50
2018-08-07T20:25:42.474Z,10.33
2018-08-07T20:28:09.658Z,9.57
2018-08-07T20:30:36.854Z,8.70
2018-08-07T20:33:04.044Z,7.33
2018-08-07T20:35:31.211Z,7.90
2018-08-07T20:37:58.407Z,9.03
2018-08-07T20:40:26.741Z,8.60
2018-08-07T20:42:54.694Z,8.40
2018-08-07T20:45:22.098Z,7.85
2018-08-07T20:47:49.274Z,8.30
2018-08-07T20:50:17.419Z,8.50
2018-08-07T20:52:44.932Z,8.70
2018-08-07T20:55:12.402Z,9.27
2018-08-07T20:57:39.591Z,9.05
2018-08-07T21:00:07.567Z,8.10
2018-08-07T21:02:34.743Z,8.97
2018-08-07T21:05:01.926Z,9.08
2018-08-07T21:07:29.120Z,8.05
2018-08-07T21:09:56.294Z,8.20
2018-08-07T21:12:23.483Z,8.63
2018-08-07T21:14:50.663Z,9.07
2018-08-07T21:17:17.844Z,8.90
2018-08-07T21:19:45.007Z,8.47
2018-08-07T21:22:12.247Z,9.08
2018-08-07T21:24:39.431Z,8.03
2018-08-07T21:27:06.611Z,9.13
2018-08-07T21:29:33.810Z,9.20
2018-08-07T21:32:00.996Z,9.35
2018-08-07T21:34:28.178Z,10.10
2018-08-07T21:36:55.352Z,8.80
2018-08-07T21:39:22.555Z,9.05
2018-08-07T21:41:49.742Z,8.63
2018-08-07T21:44:16.988Z,10.60
2018-08-07T21:46:44.158Z,10.65
2018-08-07T21:49:11.366Z,10.90
2018-08-07T21:51:38.559Z,9.38
2018-08-07T21:54:05.743Z,10.43
2018-08-07T21:56:32.938Z,10.05
2018-08-07T21:59:00.107Z,9.93
2018-08-07T22:01:27.295Z,8.30
2018-08-07T22:03:54.463Z,8.65
2018-08-07T22:06:21.652Z,7.35
2018-08-07T22:08:48.837Z,8.58
2018-08-07T22:11:16.016Z,8.23
2018-08-07T22:13:43.196Z,8.05
2018-08-07T22:16:10.381Z,8.75
2018-08-07T22:18:37.560Z,7.58
2018-08-07T22:21:04.755Z,7.10
2018-08-07T22:23:31.939Z,7.30
2018-08-07T22:25:59.139Z,8.38
2018-08-07T22:28:26.322Z,8.15
2018-08-07T22:30:53.583Z,7.55
2018-08-07T22:33:20.754Z,7.60
2018-08-07T22:35:47.934Z,6.75
2018-08-07T22:38:15.139Z,7.10
2018-08-07T22:40:42.315Z,7.22
2018-08-07T22:43:09.562Z,6.87
2018-08-07T22:45:36.787Z,6.67
2018-08-07T22:48:06.035Z,7.53
2018-08-07T22:50:33.193Z,7.67
2018-08-07T22:53:00.374Z,7.00
2018-08-07T22:55:27.556Z,7.62
2018-08-07T22:57:54.750Z,8.15
2018-08-07T23:00:22.246Z,7.65
2018-08-07T23:02:49.316Z,8.40
2018-08-07T23:05:17.531Z,8.18
2018-08-07T23:07:44.703Z,8.70
2018-08-07T23:10:13.772Z,8.50
2018-08-07T23:12:41.535Z,8.40
2018-08-07T23:15:09.667Z,9.30
2018-08-07T23:17:36.961Z,8.90
2018-08-07T23:20:04.702Z,7.47
2018-08-07T23:22:31.880Z,8.70
2018-08-07T23:24:59.068Z,8.00
2018-08-07T23:27:26.226Z,8.40
2018-08-07T23:29:53.412Z,8.40
2018-08-07T23:32:20.591Z,8.18
2018-08-07T23:34:47.769Z,8.05
2018-08-07T23:37:14.965Z,8.30
2018-08-07T23:39:42.152Z,8.98
2018-08-07T23:42:09.354Z,8.70
2018-08-07T23:44:36.505Z,7.85
2018-08-07T23:47:03.692Z,7.90
2018-08-07T23:49:30.895Z,8.35
2018-08-07T23:51:58.062Z,8.33
2018-08-07T23:54:25.389Z,9.20
2018-08-07T23:56:52.598Z,7.92
2018-08-07T23:59:19.790Z,9.65
